createdAt,value
2019-03-10T00:00:36.175Z,101184.16
2019-03-10T00:03:06.402Z,101190.80
2019-03-10T00:05:36.366Z,101184.42
2019-03-10T00:08:08.048Z,101178.31
2019-03-10T00:10:37.799Z,101157.34
2019-03-10T00:13:07.706Z,101153.62
2019-03-10T00:15:37.590Z,101145.63
2019-03-10T00:18:07.369Z,101142.44
2019-03-10T00:20:37.014Z,101136.86
2019-03-10T00:23:07.206Z,101133.92
2019-03-10T00:25:36.956Z,101138.19
2019-03-10T00:28:06.819Z,101134.75
2019-03-10T00:30:36.810Z,101126.77
2019-03-10T00:33:06.635Z,101131.53
2019-03-10T00:35:36.491Z,101129.95
2019-03-10T00:38:06.345Z,101131.02
2019-03-10T00:41:00.026Z,101131.53
2019-03-10T00:43:57.131Z,101129.16
2019-03-10T00:47:21.377Z,101120.41
2019-03-10T00:50:11.017Z,101116.15
2019-03-10T00:52:45.741Z,101106.58
2019-03-10T00:55:15.751Z,101107.34
2019-03-10T00:57:45.493Z,101097.00
2019-03-10T01:00:18.630Z,101099.42
2019-03-10T01:02:48.493Z,101101.27
2019-03-10T01:05:19.019Z,101101.00
2019-03-10T01:07:48.996Z,101103.66
2019-03-10T01:10:18.776Z,101098.33
2019-03-10T01:12:49.147Z,101092.77
2019-03-10T01:15:19.172Z,101095.39
2019-03-10T01:17:51.546Z,101086.63
2019-03-10T01:20:21.442Z,101072.58
2019-03-10T01:22:51.212Z,101067.25
2019-03-10T01:25:20.924Z,101065.13
2019-03-10T01:27:50.690Z,101049.44
2019-03-10T01:30:22.027Z,101049.17
2019-03-10T01:33:20.325Z,101035.63
2019-03-10T01:35:50.195Z,101029.52
2019-03-10T01:38:20.080Z,101028.72
2019-03-10T01:40:49.823Z,101025.00
2019-03-10T01:43:19.529Z,101013.03
2019-03-10T01:45:49.274Z,101010.41
2019-03-10T01:48:19.121Z,101019.16
2019-03-10T01:50:48.765Z,101010.91
2019-03-10T01:53:25.653Z,101004.55
2019-03-10T01:55:50.059Z,100997.11
2019-03-10T01:58:19.775Z,100985.16
2019-03-10T02:00:49.478Z,100983.02
2019-03-10T02:03:19.184Z,100982.23
2019-03-10T02:05:48.897Z,100975.86
2019-03-10T02:08:18.620Z,100969.22
2019-03-10T02:10:48.273Z,100956.45
2019-03-10T02:13:17.967Z,100947.94
2019-03-10T02:15:47.658Z,100934.69
2019-03-10T02:18:17.366Z,100933.06
2019-03-10T02:20:47.072Z,100928.83
2019-03-10T02:23:16.774Z,100911.80
2019-03-10T02:25:46.451Z,100908.61
2019-03-10T02:28:16.140Z,100899.59
2019-03-10T02:30:45.955Z,100886.56
2019-03-10T02:33:15.633Z,100875.69
2019-03-10T02:35:45.405Z,100868.77
2019-03-10T02:38:15.114Z,100858.41
2019-03-10T02:40:44.822Z,100849.89
2019-03-10T02:43:14.584Z,100846.98
2019-03-10T02:45:44.374Z,100837.17
2019-03-10T02:48:14.138Z,100831.07
2019-03-10T02:50:43.867Z,100826.80
2019-03-10T02:53:13.577Z,100811.39
2019-03-10T02:55:43.239Z,100822.02
2019-03-10T02:58:13.017Z,100813.80
2019-03-10T03:00:42.735Z,100797.61
2019-03-10T03:03:12.495Z,100798.13
2019-03-10T03:05:42.210Z,100794.13
2019-03-10T03:08:11.990Z,100788.33
2019-03-10T03:10:41.782Z,100778.20
2019-03-10T03:13:11.472Z,100775.55
2019-03-10T03:15:41.179Z,100771.84
2019-03-10T03:18:10.889Z,100758.55
2019-03-10T03:20:40.690Z,100745.83
2019-03-10T03:23:10.333Z,100733.07
2019-03-10T03:25:40.125Z,100735.45
2019-03-10T03:28:09.861Z,100724.59
2019-03-10T03:30:39.928Z,100721.41
2019-03-10T03:33:09.687Z,100723.82
2019-03-10T03:35:46.689Z,100716.13
2019-03-10T03:38:20.379Z,100713.75
2019-03-10T03:41:00.303Z,100700.22
2019-03-10T03:43:30.078Z,100698.64
2019-03-10T03:45:59.821Z,100689.84
2019-03-10T03:48:29.836Z,100689.87
2019-03-10T03:50:59.528Z,100681.08
2019-03-10T03:53:29.287Z,100663.54
2019-03-10T03:55:59.026Z,100659.61
2019-03-10T03:58:28.699Z,100655.91
2019-03-10T04:01:00.049Z,100641.60
2019-03-10T04:03:29.758Z,100631.26
2019-03-10T04:05:59.408Z,100635.02
2019-03-10T04:08:29.172Z,100629.20
2019-03-10T04:10:58.840Z,100617.77
2019-03-10T04:13:28.554Z,100608.50
2019-03-10T04:15:58.190Z,100590.19
2019-03-10T04:18:27.921Z,100579.61
2019-03-10T04:20:57.687Z,100579.08
2019-03-10T04:23:27.396Z,100573.55
2019-03-10T04:25:57.163Z,100562.38
2019-03-10T04:28:26.814Z,100558.67
2019-03-10T04:30:56.513Z,100555.50
2019-03-10T04:33:26.227Z,100545.44
2019-03-10T04:35:55.922Z,100541.18
2019-03-10T04:38:25.661Z,100540.91
2019-03-10T04:40:55.417Z,100545.16
2019-03-10T04:43:25.799Z,100537.20
2019-03-10T04:45:55.601Z,100523.12
2019-03-10T04:48:25.232Z,100512.30
2019-03-10T04:50:54.995Z,100506.74
2019-03-10T04:53:24.672Z,100503.29
2019-03-10T04:55:56.020Z,100488.50
2019-03-10T04:58:26.357Z,100489.03
2019-03-10T05:00:57.761Z,100478.12
2019-03-10T05:03:28.795Z,100466.70
2019-03-10T05:05:58.479Z,100465.10
2019-03-10T05:08:28.147Z,100467.48
2019-03-10T05:10:57.857Z,100455.53
2019-03-10T05:13:27.524Z,100450.51
2019-03-10T05:15:57.627Z,100441.78
2019-03-10T05:18:27.322Z,100437.80
2019-03-10T05:20:56.991Z,100429.32
2019-03-10T05:23:32.562Z,100426.14
2019-03-10T05:26:02.547Z,100415.53
2019-03-10T05:28:35.326Z,100402.27
2019-03-10T05:31:05.070Z,100389.26
2019-03-10T05:33:34.821Z,100381.54
2019-03-10T05:36:04.730Z,100371.98
2019-03-10T05:38:34.446Z,100359.79
2019-03-10T05:41:04.226Z,100365.10
2019-03-10T05:43:33.928Z,100343.92
2019-03-10T05:46:03.822Z,100327.48
2019-03-10T05:48:33.625Z,100328.25
2019-03-10T05:51:03.432Z,100321.89
2019-03-10T05:53:33.127Z,100321.09
2019-03-10T05:56:02.872Z,100298.30
2019-03-10T05:58:32.594Z,100297.79
2019-03-10T06:01:02.361Z,100292.48
2019-03-10T06:03:32.140Z,100272.62
2019-03-10T06:06:01.846Z,100259.33
2019-03-10T06:08:32.644Z,100255.91
2019-03-10T06:11:02.331Z,100241.60
2019-03-10T06:13:31.987Z,100243.97
2019-03-10T06:16:01.719Z,100247.16
2019-03-10T06:18:31.396Z,100247.72
2019-03-10T06:21:01.159Z,100244.79
2019-03-10T06:23:30.835Z,100233.94
2019-03-10T06:26:00.567Z,100230.48
2019-03-10T06:28:30.309Z,100229.73
2019-03-10T06:31:00.037Z,100227.84
2019-03-10T06:33:29.738Z,100224.94
2019-03-10T06:35:59.408Z,100215.09
2019-03-10T06:38:29.176Z,100203.16
2019-03-10T06:40:58.825Z,100198.38
2019-03-10T06:43:28.707Z,100192.83
2019-03-10T06:45:58.345Z,100185.73
2019-03-10T06:48:28.040Z,100160.89
2019-03-10T06:50:57.686Z,100163.01
2019-03-10T06:53:27.516Z,100166.09
2019-03-10T06:55:57.157Z,100152.89
2019-03-10T06:58:26.799Z,100142.55
2019-03-10T07:00:56.527Z,100138.59
2019-03-10T07:03:26.263Z,100123.77
2019-03-10T07:05:55.951Z,100113.17
2019-03-10T07:08:25.612Z,100106.42
2019-03-10T07:10:55.319Z,100095.59
2019-03-10T07:13:25.033Z,100096.16
2019-03-10T07:15:54.737Z,100092.14
2019-03-10T07:18:24.395Z,100083.37
2019-03-10T07:20:54.244Z,100079.92
2019-03-10T07:23:23.965Z,100071.63
2019-03-10T07:26:05.922Z,100060.97
2019-03-10T07:28:38.315Z,100059.66
2019-03-10T07:31:12.410Z,100053.60
2019-03-10T07:34:00.438Z,100049.56
2019-03-10T07:36:32.025Z,100019.77
2019-03-10T07:39:13.929Z,100006.46
2019-03-10T07:41:51.432Z,100022.94
2019-03-10T07:44:34.758Z,100016.66
2019-03-10T07:47:06.164Z,100004.05
2019-03-10T07:49:37.467Z,100005.31
2019-03-10T07:52:20.985Z,99986.23
2019-03-10T07:54:53.182Z,99968.03
2019-03-10T07:57:27.580Z,99953.69
2019-03-10T07:59:58.876Z,99962.79
2019-03-10T08:02:39.391Z,99961.70
2019-03-10T08:05:25.789Z,99968.11
2019-03-10T08:08:13.307Z,99976.29
2019-03-10T08:10:42.865Z,99973.40
2019-03-10T08:13:15.570Z,99963.21
2019-03-10T08:16:01.831Z,99950.58
2019-03-10T08:18:35.656Z,99964.25
2019-03-10T08:21:23.550Z,99979.11
2019-03-10T08:24:02.049Z,99979.72
2019-03-10T08:26:36.556Z,99974.38
2019-03-10T08:29:08.950Z,99968.39
2019-03-10T08:31:38.437Z,99945.45
2019-03-10T08:34:11.021Z,99939.92
2019-03-10T08:36:44.785Z,99928.56
2019-03-10T08:39:20.328Z,99915.14
2019-03-10T08:41:58.737Z,99915.10
2019-03-10T08:44:46.231Z,99906.64
2019-03-10T08:47:21.387Z,99908.59
2019-03-10T08:50:09.434Z,99905.53
2019-03-10T08:52:46.301Z,99893.70
2019-03-10T08:55:32.980Z,99902.84
2019-03-10T08:58:04.267Z,99899.78
2019-03-10T09:00:45.754Z,99893.70
2019-03-10T09:03:17.019Z,99891.11
2019-03-10T09:05:57.341Z,99882.05
2019-03-10T09:08:32.733Z,99875.92
2019-03-10T09:11:10.303Z,99867.81
2019-03-10T09:13:57.404Z,99858.55
2019-03-10T09:16:29.532Z,99854.22
2019-03-10T09:19:01.786Z,99847.84
2019-03-10T09:21:51.126Z,99840.45
2019-03-10T09:24:20.536Z,99841.83
2019-03-10T09:26:55.750Z,99823.79
2019-03-10T09:29:36.903Z,99818.05
2019-03-10T09:32:13.787Z,99797.63
2019-03-10T09:34:55.167Z,99792.97
2019-03-10T09:37:36.424Z,99787.23
2019-03-10T09:40:12.614Z,99782.84
2019-03-10T09:42:44.043Z,99780.19
2019-03-10T09:45:27.387Z,99770.16
2019-03-10T09:48:15.145Z,99776.69
2019-03-10T09:50:46.415Z,99769.73
2019-03-10T09:53:15.940Z,99764.35
2019-03-10T09:55:49.880Z,99761.32
2019-03-10T09:58:27.023Z,99754.41
2019-03-10T10:01:02.517Z,99745.41
2019-03-10T10:03:49.570Z,99757.14
2019-03-10T10:06:27.875Z,99737.25
2019-03-10T10:09:15.405Z,99749.41
2019-03-10T10:11:49.882Z,99743.42
2019-03-10T10:14:31.337Z,99747.47
2019-03-10T10:17:05.397Z,99740.19
2019-03-10T10:19:36.721Z,99734.56
2019-03-10T10:22:11.078Z,99728.29
2019-03-10T10:24:45.174Z,99725.60
2019-03-10T10:27:28.797Z,99709.27
2019-03-10T10:30:16.365Z,99700.16
2019-03-10T10:32:53.466Z,99701.27
2019-03-10T10:35:29.630Z,99713.85
2019-03-10T10:37:59.225Z,99697.55
2019-03-10T10:40:31.991Z,99694.66
2019-03-10T10:43:06.224Z,99677.03
2019-03-10T10:45:53.632Z,99676.74
2019-03-10T10:48:25.023Z,99675.43
2019-03-10T10:51:12.876Z,99675.65
2019-03-10T10:53:44.226Z,99673.92
2019-03-10T10:56:18.398Z,99661.41
2019-03-10T10:59:07.595Z,99662.55
2019-03-10T11:01:39.163Z,99668.06
2019-03-10T11:04:13.398Z,99657.23
2019-03-10T11:06:48.895Z,99647.62
2019-03-10T11:09:20.309Z,99648.42
2019-03-10T11:11:51.761Z,99648.89
2019-03-10T11:14:29.129Z,99658.52
2019-03-10T11:16:58.663Z,99651.29
2019-03-10T11:19:30.044Z,99639.52
2019-03-10T11:22:17.770Z,99654.03
2019-03-10T11:24:51.559Z,99642.16
2019-03-10T11:27:34.840Z,99678.28
2019-03-10T11:30:08.810Z,99672.19
2019-03-10T11:32:38.290Z,99665.95
2019-03-10T11:35:27.347Z,99668.59
2019-03-10T11:37:56.876Z,99679.20
2019-03-10T11:40:44.396Z,99678.11
2019-03-10T11:43:15.758Z,99676.56
2019-03-10T11:45:56.125Z,99671.30
2019-03-10T11:48:39.105Z,99676.20
2019-03-10T11:51:13.368Z,99666.88
2019-03-10T11:53:47.716Z,99669.30
2019-03-10T11:56:28.167Z,99655.05
2019-03-10T11:59:17.861Z,99643.44
2019-03-10T12:01:51.982Z,99643.91
2019-03-10T12:04:32.191Z,99655.76
2019-03-10T12:07:19.737Z,99653.47
2019-03-10T12:09:49.566Z,99653.57
2019-03-10T12:12:19.450Z,99646.27
2019-03-10T12:14:49.181Z,99668.23
2019-03-10T12:17:18.840Z,99668.37
2019-03-10T12:19:50.031Z,99660.44
2019-03-10T12:22:19.749Z,99662.24
2019-03-10T12:24:49.575Z,99662.20
2019-03-10T12:27:19.276Z,99666.11
2019-03-10T12:29:49.046Z,99663.36
2019-03-10T12:32:18.746Z,99663.09
2019-03-10T12:34:48.407Z,99667.77
2019-03-10T12:37:18.265Z,99674.22
2019-03-10T12:39:47.981Z,99664.73
2019-03-10T12:42:17.653Z,99669.91
2019-03-10T12:44:48.500Z,99659.38
2019-03-10T12:47:18.234Z,99678.77
2019-03-10T12:49:47.910Z,99685.34
2019-03-10T12:52:17.665Z,99691.05
2019-03-10T12:54:47.414Z,99679.59
2019-03-10T12:57:17.094Z,99691.69
2019-03-10T12:59:46.973Z,99679.25
2019-03-10T13:02:16.759Z,99683.88
2019-03-10T13:04:46.429Z,99693.17
2019-03-10T13:07:16.243Z,99690.58
2019-03-10T13:09:46.289Z,99694.30
2019-03-10T13:12:15.948Z,99704.95
2019-03-10T13:14:45.695Z,99691.16
2019-03-10T13:17:15.419Z,99688.14
2019-03-10T13:19:45.166Z,99720.29
2019-03-10T13:22:14.814Z,99689.72
2019-03-10T13:24:44.580Z,99711.02
2019-03-10T13:27:14.269Z,99718.31
2019-03-10T13:29:44.026Z,99716.19
2019-03-10T13:32:13.674Z,99729.02
2019-03-10T13:34:43.398Z,99751.42
2019-03-10T13:37:13.243Z,99750.72
2019-03-10T13:39:43.150Z,99741.19
2019-03-10T13:42:13.252Z,99755.27
2019-03-10T13:44:43.151Z,99785.73
2019-03-10T13:47:12.934Z,99790.22
2019-03-10T13:49:42.939Z,99795.09
2019-03-10T13:52:12.674Z,99799.39
2019-03-10T13:54:42.341Z,99816.31
2019-03-10T13:57:12.111Z,99768.61
2019-03-10T13:59:41.825Z,99823.67
2019-03-10T14:02:11.634Z,99838.14
2019-03-10T14:04:41.341Z,99835.67
2019-03-10T14:07:11.147Z,99851.11
2019-03-10T14:09:40.893Z,99830.97
2019-03-10T14:12:10.688Z,99885.58
2019-03-10T14:14:40.367Z,99886.25
2019-03-10T14:17:10.038Z,99945.35
2019-03-10T14:19:39.789Z,99890.42
2019-03-10T14:22:09.522Z,99907.28
2019-03-10T14:24:39.245Z,99913.86
2019-03-10T14:27:09.058Z,99929.30
2019-03-10T14:29:38.717Z,99936.17
2019-03-10T14:32:08.503Z,99966.63
2019-03-10T14:34:38.268Z,99986.19
2019-03-10T14:37:08.202Z,99989.15
2019-03-10T14:39:38.010Z,99954.56
2019-03-10T14:42:07.763Z,99981.81
2019-03-10T14:44:37.441Z,99992.02
2019-03-10T14:47:07.255Z,99983.61
2019-03-10T14:49:37.056Z,100006.58
2019-03-10T14:52:06.889Z,99978.83
2019-03-10T14:54:36.550Z,100005.14
2019-03-10T14:57:06.375Z,100029.56
2019-03-10T14:59:36.145Z,100021.77
2019-03-10T15:02:06.062Z,100029.36
2019-03-10T15:04:35.800Z,100041.48
2019-03-10T15:07:05.632Z,100081.34
2019-03-10T15:09:35.335Z,100083.26
2019-03-10T15:12:05.216Z,100061.85
2019-03-10T15:14:34.947Z,100078.06
2019-03-10T15:17:04.680Z,100082.80
2019-03-10T15:19:34.399Z,100118.62
2019-03-10T15:22:04.479Z,100121.36
2019-03-10T15:24:34.154Z,100115.28
2019-03-10T15:27:03.781Z,100135.43
2019-03-10T15:32:02.134Z,100139.05
2019-03-10T15:34:31.823Z,100172.33
2019-03-10T15:37:01.560Z,100172.64
2019-03-10T15:39:31.299Z,100195.06
2019-03-10T15:42:00.975Z,100218.68
2019-03-10T15:44:30.749Z,100247.95
2019-03-10T15:47:00.462Z,100253.56
2019-03-10T15:49:30.192Z,100272.24
2019-03-10T15:51:59.859Z,100280.25
2019-03-10T15:54:29.595Z,100285.87
2019-03-10T15:56:59.435Z,100304.97
2019-03-10T15:59:29.110Z,100316.99
2019-03-10T16:01:58.809Z,100334.30
2019-03-10T16:04:28.570Z,100357.58
2019-03-10T16:06:59.237Z,100353.18
2019-03-10T16:09:28.947Z,100383.98
2019-03-10T16:11:58.793Z,100403.33
2019-03-10T16:14:28.443Z,100430.23
2019-03-10T16:16:58.144Z,100414.45
2019-03-10T16:19:27.843Z,100467.34
2019-03-10T16:21:57.612Z,100465.24
2019-03-10T16:24:27.315Z,100488.33
2019-03-10T16:26:57.064Z,100505.28
2019-03-10T16:29:26.735Z,100532.37
2019-03-10T16:31:56.508Z,100541.13
2019-03-10T16:34:26.175Z,100548.81
2019-03-10T16:36:55.901Z,100560.77
2019-03-10T16:39:25.732Z,100583.02
2019-03-10T16:41:55.439Z,100597.89
2019-03-10T16:44:25.199Z,100577.76
2019-03-10T16:46:54.912Z,100617.21
2019-03-10T16:49:24.634Z,100631.53
2019-03-10T16:51:54.400Z,100639.48
2019-03-10T16:54:24.153Z,100638.95
2019-03-10T16:56:53.903Z,100661.19
2019-03-10T16:59:23.630Z,100672.28
2019-03-10T17:01:53.415Z,100674.70
2019-03-10T17:04:23.044Z,100674.17
2019-03-10T17:06:52.755Z,100684.77
2019-03-10T17:09:22.615Z,100692.98
2019-03-10T17:11:52.547Z,100695.66
2019-03-10T17:14:22.682Z,100702.01
2019-03-10T17:16:52.679Z,100716.57
2019-03-10T17:19:22.323Z,100724.78
2019-03-10T17:21:52.096Z,100713.33
2019-03-10T17:24:21.834Z,100724.20
2019-03-10T17:26:51.515Z,100721.54
2019-03-10T17:29:21.500Z,100739.02
2019-03-10T17:31:51.189Z,100732.95
2019-03-10T17:34:20.870Z,100730.05
2019-03-10T17:36:50.580Z,100744.06
2019-03-10T17:39:20.259Z,100744.05
2019-03-10T17:41:50.188Z,100755.45
2019-03-10T17:44:19.965Z,100765.58
2019-03-10T17:46:49.727Z,100768.50
2019-03-10T17:49:19.415Z,100767.94
2019-03-10T17:51:49.142Z,100764.80
2019-03-10T17:54:19.088Z,100765.31
2019-03-10T17:56:48.753Z,100775.65
2019-03-10T17:59:18.535Z,100775.05
2019-03-10T18:01:48.350Z,100779.31
2019-03-10T18:04:18.099Z,100789.13
2019-03-10T18:06:47.775Z,100795.58
2019-03-10T18:09:17.509Z,100790.09
2019-03-10T18:11:47.223Z,100800.95
2019-03-10T18:14:16.991Z,100788.97
2019-03-10T18:16:46.781Z,100799.02
2019-03-10T18:19:16.541Z,100807.48
2019-03-10T18:21:46.621Z,100827.37
2019-03-10T18:24:16.529Z,100809.58
2019-03-10T18:26:46.225Z,100843.18
2019-03-10T18:29:16.012Z,100869.42
2019-03-10T18:31:45.757Z,100878.41
2019-03-10T18:34:15.436Z,100866.36
2019-03-10T18:36:45.165Z,100871.45
2019-03-10T18:39:14.826Z,100889.08
2019-03-10T18:41:44.552Z,100881.33
2019-03-10T18:44:14.207Z,100900.92
2019-03-10T18:46:43.873Z,100900.12
2019-03-10T18:49:13.611Z,100897.19
2019-03-10T18:51:43.333Z,100914.31
2019-03-10T18:54:13.274Z,100905.31
2019-03-10T18:56:43.028Z,100935.19
2019-03-10T18:59:12.761Z,100945.22
2019-03-10T19:01:42.395Z,100939.84
2019-03-10T19:04:12.214Z,100954.19
2019-03-10T19:06:41.962Z,100956.88
2019-03-10T19:09:11.827Z,100962.03
2019-03-10T19:11:41.604Z,100971.00
2019-03-10T19:14:11.264Z,100981.88
2019-03-10T19:16:41.004Z,100993.78
2019-03-10T19:19:11.045Z,100998.47
2019-03-10T19:21:40.860Z,101007.17
2019-03-10T19:24:10.548Z,101012.42
2019-03-10T19:26:40.229Z,101028.73
2019-03-10T19:29:09.953Z,101032.69
2019-03-10T19:31:39.660Z,101032.14
2019-03-10T19:34:09.336Z,101042.58
2019-03-10T19:36:39.161Z,101045.20
2019-03-10T19:39:08.947Z,101057.63
2019-03-10T19:41:38.720Z,101058.84
2019-03-10T19:44:08.493Z,101058.34
2019-03-10T19:46:38.248Z,101065.53
2019-03-10T19:49:07.895Z,101070.52
2019-03-10T19:51:37.670Z,101075.70
2019-03-10T19:54:07.319Z,101077.63
2019-03-10T19:56:37.002Z,101078.04
2019-03-10T19:59:06.796Z,101083.91
2019-03-10T20:01:36.506Z,101092.80
2019-03-10T20:04:06.222Z,101114.36
2019-03-10T20:06:35.904Z,101140.45
2019-03-10T20:09:07.459Z,101156.72
2019-03-10T20:11:37.247Z,101163.38
2019-03-10T20:14:07.372Z,101168.55
2019-03-10T20:16:37.051Z,101142.76
2019-03-10T20:19:06.763Z,101086.86
2019-03-10T20:21:36.494Z,101114.33
2019-03-10T20:24:06.496Z,101112.05
2019-03-10T20:26:36.166Z,101121.91
2019-03-10T20:29:06.083Z,101117.59
2019-03-10T20:31:35.827Z,101118.58
2019-03-10T20:34:05.761Z,101113.63
2019-03-10T20:36:35.715Z,101115.23
2019-03-10T20:39:07.381Z,101122.17
2019-03-10T20:41:37.050Z,101126.16
2019-03-10T20:44:06.724Z,101131.67
2019-03-10T20:46:36.437Z,101133.61
2019-03-10T20:49:06.178Z,101140.45
2019-03-10T20:51:35.887Z,101126.45
2019-03-10T20:54:05.672Z,101119.18
2019-03-10T20:56:35.368Z,101128.98
2019-03-10T20:59:05.168Z,101117.66
2019-03-10T21:01:34.839Z,101121.72
2019-03-10T21:04:04.596Z,101120.23
2019-03-10T21:06:34.276Z,101132.09
2019-03-10T21:09:04.785Z,101128.04
2019-03-10T21:11:34.704Z,101131.86
2019-03-10T21:14:04.619Z,101137.48
2019-03-10T21:16:34.321Z,101137.38
2019-03-10T21:19:04.020Z,101138.78
2019-03-10T21:21:33.802Z,101138.65
2019-03-10T21:24:03.463Z,101134.45
2019-03-10T21:26:34.659Z,101135.34
2019-03-10T21:29:04.485Z,101133.78
2019-03-10T21:31:34.220Z,101133.61
2019-03-10T21:34:03.949Z,101132.42
2019-03-10T21:36:33.697Z,101139.08
2019-03-10T21:39:04.724Z,101141.41
2019-03-10T21:41:35.614Z,101145.48
2019-03-10T21:44:05.518Z,101154.70
2019-03-10T21:46:35.386Z,101155.28
2019-03-10T21:49:05.114Z,101160.86
2019-03-10T21:51:34.922Z,101172.71
2019-03-10T21:54:04.630Z,101160.57
2019-03-10T21:56:34.402Z,101160.47
2019-03-10T21:59:04.086Z,101157.59
2019-03-10T22:01:33.834Z,101161.80
2019-03-10T22:04:03.589Z,101153.95
2019-03-10T22:06:33.389Z,101154.45
2019-03-10T22:09:04.945Z,101154.09
2019-03-10T22:11:36.158Z,101151.61
2019-03-10T22:14:06.563Z,101146.59
2019-03-10T22:16:36.287Z,101152.75
2019-03-10T22:19:05.986Z,101152.84
2019-03-10T22:21:35.713Z,101148.33
2019-03-10T22:24:05.498Z,101148.87
2019-03-10T22:26:35.225Z,101149.23
2019-03-10T22:29:04.953Z,101150.55
2019-03-10T22:31:34.737Z,101145.58
2019-03-10T22:34:04.547Z,101149.53
2019-03-10T22:36:34.387Z,101148.97
2019-03-10T22:39:04.876Z,101151.28
2019-03-10T22:41:34.565Z,101145.48
2019-03-10T22:44:04.289Z,101149.69
2019-03-10T22:46:34.154Z,101147.59
2019-03-10T22:49:03.836Z,101151.42
2019-03-10T22:51:33.579Z,101149.29
2019-03-10T22:54:03.306Z,101143.23
2019-03-10T22:56:33.017Z,101146.92
2019-03-10T22:59:02.745Z,101137.34
2019-03-10T23:01:32.560Z,101133.54
2019-03-10T23:04:02.402Z,101120.81
2019-03-10T23:06:32.181Z,101136.86
2019-03-10T23:09:02.007Z,101132.14
2019-03-10T23:11:31.712Z,101123.51
2019-03-10T23:14:01.673Z,101127.35
2019-03-10T23:16:31.380Z,101135.66
2019-03-10T23:19:01.131Z,101144.34
2019-03-10T23:21:30.847Z,101151.72
2019-03-10T23:24:00.657Z,101149.89
2019-03-10T23:26:30.411Z,101153.93
2019-03-10T23:29:00.114Z,101151.27
2019-03-10T23:31:29.770Z,101133.01
2019-03-10T23:33:59.603Z,101121.65
2019-03-10T23:36:29.452Z,101132.08
2019-03-10T23:38:59.311Z,101130.25
2019-03-10T23:41:29.277Z,101114.48
2019-03-10T23:43:58.976Z,101099.39
2019-03-10T23:46:28.705Z,101092.54
2019-03-10T23:48:58.374Z,101092.62
2019-03-10T23:51:28.035Z,101080.72
2019-03-10T23:53:57.775Z,101087.13
2019-03-10T23:56:27.499Z,101080.91
2019-03-10T23:58:57.352Z,101070.08
